createdAt,value
2023-05-16T00:02:26.283Z,100571.94
2023-05-16T00:04:54.817Z,100567.38
2023-05-16T00:07:22.392Z,100559.19
2023-05-16T00:09:50.467Z,100562.13
2023-05-16T00:12:17.964Z,100566.69
2023-05-16T00:14:46.028Z,100566.47
2023-05-16T00:17:13.669Z,100567.47
2023-05-16T00:19:42.433Z,100569.06
2023-05-16T00:22:11.668Z,100565.94
2023-05-16T00:24:39.782Z,100564.16
2023-05-16T00:27:08.275Z,100561.16
2023-05-16T00:29:36.539Z,100557.31
2023-05-16T00:32:04.883Z,100553.94
2023-05-16T00:34:32.498Z,100562.94
2023-05-16T00:37:00.234Z,100562.25
2023-05-16T00:39:28.086Z,100565.53
2023-05-16T00:41:57.918Z,100557.31
2023-05-16T00:44:25.509Z,100559.28
2023-05-16T00:46:54.560Z,100561.25
2023-05-16T00:49:22.502Z,100548.84
2023-05-16T00:51:50.438Z,100551.09
2023-05-16T00:54:20.761Z,100546.69
2023-05-16T00:56:51.528Z,100551.06
2023-05-16T00:59:20.486Z,100555.28
2023-05-16T01:01:48.979Z,100560.09
2023-05-16T01:04:18.179Z,100553.75
2023-05-16T01:06:46.377Z,100569.88
2023-05-16T01:09:14.787Z,100572.19
2023-05-16T01:12:13.250Z,100576.44
2023-05-16T01:14:46.565Z,100575.78
2023-05-16T01:17:39.608Z,100583.44
2023-05-16T01:20:17.108Z,100583.75
2023-05-16T01:22:46.212Z,100579.00
2023-05-16T01:25:36.670Z,100581.25
2023-05-16T01:28:05.254Z,100572.75
2023-05-16T01:30:37.429Z,100576.94
2023-05-16T01:33:05.299Z,100572.34
2023-05-16T01:35:33.651Z,100582.56
2023-05-16T01:38:04.661Z,100588.06
2023-05-16T01:40:51.073Z,100579.59
2023-05-16T01:43:42.424Z,100577.16
2023-05-16T01:46:14.564Z,100576.66
2023-05-16T01:48:53.677Z,100578.41
2023-05-16T01:51:30.806Z,100574.19
2023-05-16T01:54:05.623Z,100579.09
2023-05-16T01:56:34.796Z,100582.34
2023-05-16T01:59:03.243Z,100580.41
2023-05-16T02:01:33.153Z,100576.16
2023-05-16T02:04:01.186Z,100580.88
2023-05-16T02:06:28.877Z,100583.97
2023-05-16T02:08:57.665Z,100582.03
2023-05-16T02:11:25.238Z,100582.03
2023-05-16T02:13:53.224Z,100585.69
2023-05-16T02:16:21.037Z,100588.78
2023-05-16T02:18:48.794Z,100584.41
2023-05-16T02:21:36.546Z,100577.22
2023-05-16T02:24:05.038Z,100588.69
2023-05-16T02:26:32.671Z,100578.56
2023-05-16T02:29:00.904Z,100590.16
2023-05-16T02:31:33.523Z,100594.91
2023-05-16T02:34:02.091Z,100593.13
2023-05-16T02:36:29.982Z,100588.56
2023-05-16T02:38:57.466Z,100592.63
2023-05-16T02:41:25.536Z,100594.78
2023-05-16T02:43:53.579Z,100602.66
2023-05-16T02:46:26.108Z,100601.03
2023-05-16T02:48:57.869Z,100588.69
2023-05-16T02:51:27.188Z,100591.47
2023-05-16T02:53:57.380Z,100598.81
2023-05-16T02:56:26.945Z,100592.16
2023-05-16T02:58:55.527Z,100595.75
2023-05-16T03:01:23.352Z,100590.25
2023-05-16T03:03:51.269Z,100593.88
2023-05-16T03:06:19.526Z,100590.47
2023-05-16T03:08:47.453Z,100585.63
2023-05-16T03:11:23.075Z,100584.81
2023-05-16T03:13:50.896Z,100590.19
2023-05-16T03:16:18.839Z,100579.94
2023-05-16T03:18:46.629Z,100580.75
2023-05-16T03:21:15.382Z,100587.13
2023-05-16T03:23:45.665Z,100588.75
2023-05-16T03:26:13.620Z,100583.88
2023-05-16T03:28:41.222Z,100591.38
2023-05-16T03:31:09.066Z,100598.41
2023-05-16T03:33:36.895Z,100594.97
2023-05-16T03:36:05.499Z,100600.19
2023-05-16T03:38:33.505Z,100595.94
2023-05-16T03:41:01.439Z,100600.16
2023-05-16T03:43:29.329Z,100599.66
2023-05-16T03:45:57.067Z,100593.47
2023-05-16T03:48:25.129Z,100591.16
2023-05-16T03:50:53.107Z,100593.94
2023-05-16T03:53:21.097Z,100598.16
2023-05-16T03:55:49.161Z,100598.13
2023-05-16T03:58:17.173Z,100598.59
2023-05-16T04:00:46.333Z,100616.53
2023-05-16T04:03:14.003Z,100614.25
2023-05-16T04:05:41.696Z,100616.00
2023-05-16T04:08:09.518Z,100613.69
2023-05-16T04:10:37.011Z,100611.38
2023-05-16T04:13:04.715Z,100609.88
2023-05-16T04:15:32.476Z,100614.31
2023-05-16T04:18:00.211Z,100614.59
2023-05-16T04:20:28.302Z,100615.53
2023-05-16T04:22:55.900Z,100618.47
2023-05-16T04:25:23.856Z,100619.59
2023-05-16T04:27:51.500Z,100618.06
2023-05-16T04:30:19.454Z,100619.97
2023-05-16T04:32:47.196Z,100632.25
2023-05-16T04:35:14.700Z,100627.50
2023-05-16T04:37:43.742Z,100631.03
2023-05-16T04:40:13.425Z,100629.53
2023-05-16T04:42:41.047Z,100629.00
2023-05-16T04:45:11.636Z,100631.25
2023-05-16T04:47:39.406Z,100629.09
2023-05-16T04:50:09.148Z,100633.66
2023-05-16T04:52:38.252Z,100633.47
2023-05-16T04:55:07.399Z,100635.56
2023-05-16T04:57:35.082Z,100638.47
2023-05-16T05:00:02.725Z,100646.16
2023-05-16T05:02:32.157Z,100638.94
2023-05-16T05:04:59.642Z,100648.44
2023-05-16T05:07:29.297Z,100643.47
2023-05-16T05:09:56.935Z,100653.25
2023-05-16T05:12:25.387Z,100650.56
2023-05-16T05:14:53.094Z,100637.75
2023-05-16T05:17:22.015Z,100647.50
2023-05-16T05:19:50.055Z,100653.47
2023-05-16T05:22:18.021Z,100654.56
2023-05-16T05:24:46.240Z,100647.97
2023-05-16T05:27:14.027Z,100653.38
2023-05-16T05:29:41.841Z,100656.88
2023-05-16T05:32:09.983Z,100664.22
2023-05-16T05:34:37.779Z,100650.56
2023-05-16T05:37:05.535Z,100646.59
2023-05-16T05:39:33.260Z,100660.44
2023-05-16T05:42:03.717Z,100653.22
2023-05-16T05:44:31.364Z,100659.16
2023-05-16T05:46:59.197Z,100667.28
2023-05-16T05:49:27.960Z,100667.38
2023-05-16T05:51:55.686Z,100657.97
2023-05-16T05:54:23.829Z,100661.13
2023-05-16T05:56:51.619Z,100659.78
2023-05-16T05:59:19.294Z,100665.91
2023-05-16T06:01:47.291Z,100668.25
2023-05-16T06:04:14.798Z,100667.50
2023-05-16T06:06:42.610Z,100666.94
2023-05-16T06:09:10.673Z,100670.31
2023-05-16T06:11:38.824Z,100672.19
2023-05-16T06:14:07.132Z,100677.31
2023-05-16T06:16:34.863Z,100673.31
2023-05-16T06:19:02.726Z,100674.56
2023-05-16T06:21:30.781Z,100677.91
2023-05-16T06:23:58.921Z,100681.38
2023-05-16T06:26:26.699Z,100671.94
2023-05-16T06:28:54.778Z,100665.44
2023-05-16T06:31:25.127Z,100682.81
2023-05-16T06:33:52.800Z,100673.13
2023-05-16T06:36:20.799Z,100678.25
2023-05-16T06:38:48.721Z,100674.44
2023-05-16T06:41:16.360Z,100672.44
2023-05-16T06:43:44.001Z,100674.28
2023-05-16T06:46:11.909Z,100666.47
2023-05-16T06:48:39.496Z,100662.47
2023-05-16T06:51:11.569Z,100669.00
2023-05-16T06:53:39.531Z,100664.63
2023-05-16T06:56:07.580Z,100668.34
2023-05-16T06:58:35.531Z,100659.25
2023-05-16T07:01:06.368Z,100661.09
2023-05-16T07:03:34.427Z,100659.09
2023-05-16T07:06:02.116Z,100657.50
2023-05-16T07:08:30.133Z,100668.88
2023-05-16T07:10:58.008Z,100671.56
2023-05-16T07:13:25.817Z,100662.28
2023-05-16T07:15:54.408Z,100670.38
2023-05-16T07:18:22.402Z,100659.25
2023-05-16T07:20:54.792Z,100663.13
2023-05-16T07:23:54.399Z,100657.84
2023-05-16T07:26:23.424Z,100657.69
2023-05-16T07:28:51.496Z,100658.69
2023-05-16T07:31:19.340Z,100647.75
2023-05-16T07:33:47.314Z,100653.41
2023-05-16T07:36:17.260Z,100648.78
2023-05-16T07:38:45.728Z,100651.03
2023-05-16T07:41:13.276Z,100654.50
2023-05-16T07:43:41.334Z,100653.72
2023-05-16T07:46:09.183Z,100648.25
2023-05-16T07:48:37.245Z,100651.06
2023-05-16T07:51:05.124Z,100647.19
2023-05-16T07:53:32.779Z,100641.94
2023-05-16T07:56:00.703Z,100649.25
2023-05-16T07:58:28.746Z,100645.44
2023-05-16T08:00:56.605Z,100647.69
2023-05-16T08:03:24.367Z,100647.47
2023-05-16T08:05:53.400Z,100641.59
2023-05-16T08:08:21.371Z,100637.16
2023-05-16T08:10:49.580Z,100647.47
2023-05-16T08:13:17.541Z,100645.75
2023-05-16T08:15:45.311Z,100644.91
2023-05-16T08:18:15.478Z,100635.63
2023-05-16T08:20:43.748Z,100637.47
2023-05-16T08:23:11.694Z,100642.94
2023-05-16T08:25:39.471Z,100647.00
2023-05-16T08:28:07.441Z,100639.28
2023-05-16T08:30:35.242Z,100633.84
2023-05-16T08:33:05.563Z,100631.41
2023-05-16T08:35:35.722Z,100638.28
2023-05-16T08:38:03.781Z,100635.47
2023-05-16T08:40:31.750Z,100627.16
2023-05-16T08:42:59.546Z,100633.69
2023-05-16T08:45:27.613Z,100630.81
2023-05-16T08:47:57.343Z,100625.75
2023-05-16T08:50:25.971Z,100623.53
2023-05-16T08:52:54.571Z,100619.47
2023-05-16T08:55:23.474Z,100622.09
2023-05-16T08:57:54.429Z,100625.16
2023-05-16T09:00:22.790Z,100631.25
2023-05-16T09:02:51.261Z,100615.41
2023-05-16T09:05:19.245Z,100618.88
2023-05-16T09:07:46.996Z,100617.06
2023-05-16T09:10:15.025Z,100614.63
2023-05-16T09:12:43.808Z,100615.00
2023-05-16T09:15:11.986Z,100622.34
2023-05-16T09:17:43.656Z,100614.63
2023-05-16T09:20:16.804Z,100624.38
2023-05-16T09:22:56.606Z,100613.00
2023-05-16T09:25:31.463Z,100625.97
2023-05-16T09:28:02.084Z,100614.63
2023-05-16T09:30:35.330Z,100614.00
2023-05-16T09:33:03.390Z,100622.94
2023-05-16T09:35:44.110Z,100604.66
2023-05-16T09:38:17.584Z,100610.34
2023-05-16T09:40:47.990Z,100602.63
2023-05-16T09:43:17.593Z,100602.41
2023-05-16T09:45:48.542Z,100608.47
2023-05-16T09:48:17.422Z,100604.38
2023-05-16T09:50:53.585Z,100600.31
2023-05-16T09:53:28.680Z,100589.75
2023-05-16T09:56:12.373Z,100591.38
2023-05-16T09:58:44.769Z,100583.44
2023-05-16T10:01:12.827Z,100595.22
2023-05-16T10:03:43.989Z,100587.69
2023-05-16T10:06:13.984Z,100580.75
2023-05-16T10:08:52.443Z,100582.81
2023-05-16T10:11:20.945Z,100577.13
2023-05-16T10:13:55.419Z,100570.59
2023-05-16T10:16:24.839Z,100560.84
2023-05-16T10:18:53.561Z,100572.63
2023-05-16T10:21:23.626Z,100561.22
2023-05-16T10:23:57.274Z,100561.44
2023-05-16T10:26:26.778Z,100564.91
2023-05-16T10:28:55.815Z,100557.38
2023-05-16T10:31:25.141Z,100548.66
2023-05-16T10:33:53.638Z,100543.53
2023-05-16T10:36:21.848Z,100545.75
2023-05-16T10:38:52.267Z,100549.78
2023-05-16T10:41:22.250Z,100557.50
2023-05-16T10:43:58.189Z,100544.09
2023-05-16T10:46:29.468Z,100551.38
2023-05-16T10:48:58.711Z,100545.69
2023-05-16T10:51:32.671Z,100544.00
2023-05-16T10:54:08.322Z,100542.34
2023-05-16T10:56:36.831Z,100533.97
2023-05-16T10:59:11.415Z,100527.63
2023-05-16T11:01:41.645Z,100534.94
2023-05-16T11:04:11.618Z,100520.25
2023-05-16T11:07:00.100Z,100522.72
2023-05-16T11:09:28.428Z,100530.47
2023-05-16T11:12:04.325Z,100514.97
2023-05-16T11:14:35.096Z,100521.75
2023-05-16T11:17:07.968Z,100516.44
2023-05-16T11:19:53.086Z,100520.78
2023-05-16T11:22:23.372Z,100516.69
2023-05-16T11:24:55.491Z,100522.13
2023-05-16T11:27:26.167Z,100517.44
2023-05-16T11:29:55.500Z,100517.16
2023-05-16T11:32:24.143Z,100512.66
2023-05-16T11:34:53.350Z,100511.41
2023-05-16T11:37:21.458Z,100506.25
2023-05-16T11:39:49.426Z,100510.09
2023-05-16T11:42:18.213Z,100507.16
2023-05-16T11:44:46.821Z,100505.47
2023-05-16T11:47:14.851Z,100504.38
2023-05-16T11:49:42.404Z,100497.63
2023-05-16T11:52:10.490Z,100497.63
2023-05-16T11:54:38.948Z,100502.91
2023-05-16T11:57:06.734Z,100504.09
2023-05-16T11:59:34.434Z,100505.28
2023-05-16T12:02:04.766Z,100507.03
2023-05-16T12:04:33.037Z,100495.47
2023-05-16T12:07:01.945Z,100506.44
2023-05-16T12:09:34.502Z,100503.34
2023-05-16T12:12:06.022Z,100503.63
2023-05-16T12:14:33.931Z,100498.25
2023-05-16T12:17:01.635Z,100495.38
2023-05-16T12:19:29.614Z,100496.91
2023-05-16T12:21:57.397Z,100503.38
2023-05-16T12:24:33.044Z,100491.50
2023-05-16T12:27:00.747Z,100500.50
2023-05-16T12:29:28.581Z,100495.81
2023-05-16T12:31:56.671Z,100487.00
2023-05-16T12:34:24.853Z,100487.53
2023-05-16T12:36:55.370Z,100477.44
2023-05-16T12:39:26.187Z,100478.28
